createdAt,value
2019-05-23T00:02:15.682Z,96084.11
2019-05-23T00:05:16.884Z,96080.05
2019-05-23T00:11:22.023Z,96080.73
2019-05-23T00:14:22.470Z,96073.08
2019-05-23T00:17:14.307Z,96072.11
2019-05-23T00:20:02.216Z,96077.67
2019-05-23T00:22:51.303Z,96072.53
2019-05-23T00:25:40.387Z,96069.36
2019-05-23T00:28:28.010Z,96074.35
2019-05-23T00:31:40.857Z,96076.23
2019-05-23T00:34:29.865Z,96080.53
2019-05-23T00:37:17.822Z,96080.23
2019-05-23T00:40:06.362Z,96073.64
2019-05-23T00:42:54.843Z,96072.19
2019-05-23T00:45:43.430Z,96078.03
2019-05-23T00:48:31.865Z,96080.13
2019-05-23T00:51:21.461Z,96082.17
2019-05-23T00:54:09.239Z,96074.97
2019-05-23T00:56:57.062Z,96081.30
2019-05-23T00:59:45.219Z,96075.56
2019-05-23T01:02:33.982Z,96076.23
2019-05-23T01:05:22.301Z,96077.78
2019-05-23T01:08:10.557Z,96071.50
2019-05-23T01:10:58.439Z,96069.14
2019-05-23T01:13:46.277Z,96065.67
2019-05-23T01:16:34.153Z,96069.54
2019-05-23T01:19:21.637Z,96066.07
2019-05-23T01:22:11.399Z,96066.28
2019-05-23T01:24:59.472Z,96067.02
2019-05-23T01:27:47.194Z,96070.21
2019-05-23T01:30:41.210Z,96073.57
2019-05-23T01:33:29.137Z,96070.14
2019-05-23T01:36:17.617Z,96068.84
2019-05-23T01:39:08.566Z,96070.83
2019-05-23T01:41:56.630Z,96070.14
2019-05-23T01:44:44.704Z,96070.48
2019-05-23T01:47:32.375Z,96070.77
2019-05-23T01:50:25.324Z,96075.37
2019-05-23T01:53:13.979Z,96069.66
2019-05-23T01:56:01.268Z,96075.38
2019-05-23T01:58:48.931Z,96072.12
2019-05-23T02:01:37.562Z,96068.42
2019-05-23T02:04:24.938Z,96071.05
2019-05-23T02:07:13.656Z,96075.54
2019-05-23T02:10:01.044Z,96070.02
2019-05-23T02:12:48.720Z,96062.13
2019-05-23T02:15:36.908Z,96068.85
2019-05-23T02:18:26.408Z,96069.66
2019-05-23T02:21:15.860Z,96072.44
2019-05-23T02:24:05.129Z,96067.68
2019-05-23T02:26:52.806Z,96071.50
2019-05-23T02:29:41.919Z,96067.59
2019-05-23T02:32:31.061Z,96069.81
2019-05-23T02:35:19.542Z,96072.20
2019-05-23T02:38:28.664Z,96070.78
2019-05-23T02:41:28.736Z,96068.13
2019-05-23T02:44:21.227Z,96067.73
2019-05-23T02:47:26.311Z,96065.51
2019-05-23T02:50:22.390Z,96060.42
2019-05-23T02:53:13.527Z,96051.66
2019-05-23T02:56:05.445Z,96057.29
2019-05-23T02:59:28.959Z,96056.42
2019-05-23T03:02:45.752Z,96059.39
2019-05-23T03:05:37.186Z,96055.23
2019-05-23T03:08:25.176Z,96054.69
2019-05-23T03:11:36.602Z,96057.08
2019-05-23T03:14:26.041Z,96054.84
2019-05-23T03:17:16.343Z,96050.38
2019-05-23T03:20:06.181Z,96050.55
2019-05-23T03:22:58.650Z,96053.50
2019-05-23T03:26:34.726Z,96057.45
2019-05-23T03:29:22.778Z,96062.47
2019-05-23T03:32:37.337Z,96053.23
2019-05-23T03:35:33.230Z,96060.24
2019-05-23T03:38:20.792Z,96064.41
2019-05-23T03:41:08.429Z,96063.44
2019-05-23T03:43:57.020Z,96060.80
2019-05-23T03:46:47.036Z,96061.34
2019-05-23T03:49:34.962Z,96064.30
2019-05-23T03:52:23.827Z,96060.23
2019-05-23T03:55:11.899Z,96069.54
2019-05-23T03:58:00.872Z,96061.52
2019-05-23T04:00:52.555Z,96066.83
2019-05-23T04:03:42.320Z,96064.23
2019-05-23T04:06:30.188Z,96059.28
2019-05-23T04:09:17.918Z,96064.10
2019-05-23T04:12:06.006Z,96062.77
2019-05-23T04:14:53.776Z,96061.34
2019-05-23T04:17:41.291Z,96063.50
2019-05-23T04:20:28.325Z,96068.94
2019-05-23T04:23:17.815Z,96068.85
2019-05-23T04:26:06.059Z,96067.92
2019-05-23T04:28:53.607Z,96069.68
2019-05-23T04:31:41.059Z,96067.50
2019-05-23T04:34:29.601Z,96058.73
2019-05-23T04:37:17.013Z,96065.52
2019-05-23T04:40:06.835Z,96065.91
2019-05-23T04:42:54.444Z,96063.25
2019-05-23T04:45:43.720Z,96062.39
2019-05-23T04:48:31.097Z,96063.56
2019-05-23T04:51:20.763Z,96065.00
2019-05-23T04:54:08.783Z,96059.13
2019-05-23T04:56:56.535Z,96058.01
2019-05-23T04:59:44.870Z,96054.53
2019-05-23T05:02:31.922Z,96056.92
2019-05-23T05:05:19.465Z,96058.14
2019-05-23T05:08:07.194Z,96055.89
2019-05-23T05:10:55.100Z,96053.80
2019-05-23T05:13:43.546Z,96053.77
2019-05-23T05:16:31.713Z,96053.28
2019-05-23T05:19:19.860Z,96045.39
2019-05-23T05:22:07.566Z,96037.78
2019-05-23T05:24:55.266Z,96039.90
2019-05-23T05:27:42.656Z,96037.20
2019-05-23T05:30:30.536Z,96038.63
2019-05-23T05:33:18.518Z,96052.39
2019-05-23T05:36:07.722Z,96046.86
2019-05-23T05:38:55.262Z,96048.63
2019-05-23T05:41:43.335Z,96047.66
2019-05-23T05:44:30.657Z,96042.39
2019-05-23T05:47:19.414Z,96044.82
2019-05-23T05:50:08.449Z,96042.58
2019-05-23T05:52:55.726Z,96045.01
2019-05-23T05:55:42.945Z,96045.55
2019-05-23T05:58:30.430Z,96048.11
2019-05-23T06:01:32.713Z,96047.44
2019-05-23T06:04:07.082Z,96051.75
2019-05-23T06:07:00.717Z,96052.98
2019-05-23T06:09:49.216Z,96055.50
2019-05-23T06:12:36.701Z,96048.40
2019-05-23T06:15:25.292Z,96048.84
2019-05-23T06:18:13.016Z,96057.30
2019-05-23T06:21:01.296Z,96055.36
2019-05-23T06:23:51.129Z,96050.69
2019-05-23T06:26:38.505Z,96050.92
2019-05-23T06:29:25.944Z,96050.80
2019-05-23T06:32:16.927Z,96043.03
2019-05-23T06:35:05.677Z,96040.48
2019-05-23T06:37:53.513Z,96043.84
2019-05-23T06:40:42.819Z,96038.10
2019-05-23T06:43:31.203Z,96040.09
2019-05-23T06:46:18.706Z,96028.91
2019-05-23T06:49:06.313Z,96032.02
2019-05-23T06:51:53.835Z,96027.21
2019-05-23T06:54:41.298Z,96023.78
2019-05-23T06:57:28.807Z,96028.61
2019-05-23T07:00:18.690Z,96020.09
2019-05-23T07:03:06.086Z,96020.57
2019-05-23T07:05:53.744Z,96020.54
2019-05-23T07:08:41.500Z,96029.20
2019-05-23T07:11:29.364Z,96021.75
2019-05-23T07:14:17.513Z,96024.27
2019-05-23T07:17:05.933Z,96018.50
2019-05-23T07:19:53.349Z,96020.89
2019-05-23T07:22:41.614Z,96021.52
2019-05-23T07:25:29.745Z,96024.89
2019-05-23T07:28:17.251Z,96032.20
2019-05-23T07:31:04.862Z,96018.27
2019-05-23T07:34:01.930Z,96027.30
2019-05-23T07:36:41.460Z,96028.77
2019-05-23T07:39:29.587Z,96018.85
2019-05-23T07:42:17.300Z,96018.05
2019-05-23T07:45:06.294Z,96020.02
2019-05-23T07:47:55.596Z,96018.09
2019-05-23T07:50:43.076Z,96014.04
2019-05-23T07:54:01.536Z,96020.19
2019-05-23T07:56:49.791Z,96013.67
2019-05-23T07:59:37.007Z,96014.61
2019-05-23T08:02:34.018Z,96012.23
2019-05-23T08:05:22.151Z,96007.95
2019-05-23T08:08:10.539Z,96004.86
2019-05-23T08:10:57.873Z,95999.63
2019-05-23T08:13:45.492Z,96005.34
2019-05-23T08:16:33.507Z,95996.54
2019-05-23T08:19:21.325Z,96004.89
2019-05-23T08:22:08.954Z,95996.39
2019-05-23T08:24:56.371Z,95998.58
2019-05-23T08:27:44.215Z,96003.72
2019-05-23T08:30:32.037Z,95995.04
2019-05-23T08:33:19.177Z,96000.33
2019-05-23T08:36:07.543Z,95997.42
2019-05-23T08:38:55.521Z,95993.83
2019-05-23T08:41:43.003Z,95995.40
2019-05-23T08:44:30.860Z,95995.20
2019-05-23T08:47:18.321Z,95996.61
2019-05-23T08:50:07.833Z,95993.84
2019-05-23T08:52:56.268Z,95989.59
2019-05-23T08:55:49.793Z,95991.86
2019-05-23T08:58:37.136Z,95999.33
2019-05-23T09:01:25.122Z,95994.84
2019-05-23T09:04:12.801Z,95997.34
2019-05-23T09:07:01.390Z,95985.94
2019-05-23T09:09:49.289Z,95987.59
2019-05-23T09:12:37.355Z,95989.12
2019-05-23T09:15:25.347Z,95978.59
2019-05-23T09:18:13.374Z,95984.20
2019-05-23T09:21:01.121Z,95981.34
2019-05-23T09:23:48.693Z,95966.84
2019-05-23T09:26:36.249Z,95973.28
2019-05-23T09:29:24.067Z,95971.39
2019-05-23T09:32:11.615Z,95974.55
2019-05-23T09:35:01.434Z,95977.67
2019-05-23T09:37:49.630Z,95974.08
2019-05-23T09:40:36.843Z,95975.31
2019-05-23T09:43:24.213Z,95975.25
2019-05-23T09:46:11.913Z,95983.70
2019-05-23T09:49:00.430Z,95982.42
2019-05-23T09:51:49.241Z,95982.16
2019-05-23T09:54:36.769Z,95978.75
2019-05-23T09:57:25.031Z,95984.84
2019-05-23T10:00:15.209Z,95985.47
2019-05-23T10:03:03.146Z,95970.70
2019-05-23T10:05:52.335Z,95979.79
2019-05-23T10:08:39.732Z,95976.14
2019-05-23T10:11:27.683Z,95978.98
2019-05-23T10:14:20.503Z,95972.55
2019-05-23T10:17:07.961Z,95967.31
2019-05-23T10:19:55.648Z,95963.97
2019-05-23T10:22:43.475Z,95957.81
2019-05-23T10:25:30.776Z,95960.25
2019-05-23T10:28:18.742Z,95962.05
2019-05-23T10:31:08.051Z,95966.45
2019-05-23T10:33:56.630Z,95968.71
2019-05-23T10:36:44.084Z,95964.77
2019-05-23T10:39:32.280Z,95957.00
2019-05-23T10:42:19.885Z,95962.14
2019-05-23T10:45:08.803Z,95955.34
2019-05-23T10:47:56.305Z,95954.84
2019-05-23T10:50:45.342Z,95953.36
2019-05-23T10:53:32.826Z,95950.48
2019-05-23T10:56:21.765Z,95939.78
2019-05-23T10:59:08.876Z,95934.42
2019-05-23T11:01:56.713Z,95939.37
2019-05-23T11:04:44.319Z,95931.58
2019-05-23T11:07:31.653Z,95933.80
2019-05-23T11:10:19.078Z,95931.71
2019-05-23T11:13:06.594Z,95922.66
2019-05-23T11:15:54.521Z,95920.16
2019-05-23T11:18:42.006Z,95917.41
2019-05-23T11:21:29.813Z,95910.92
2019-05-23T11:24:18.335Z,95919.28
2019-05-23T11:27:05.971Z,95911.88
2019-05-23T11:29:53.315Z,95906.45
2019-05-23T11:32:41.190Z,95907.45
2019-05-23T11:35:29.518Z,95910.58
2019-05-23T11:38:17.797Z,95906.31
2019-05-23T11:41:05.209Z,95902.63
2019-05-23T11:43:53.339Z,95905.73
2019-05-23T11:46:40.778Z,95903.60
2019-05-23T11:49:28.215Z,95908.37
2019-05-23T11:52:16.447Z,95893.83
2019-05-23T11:55:03.953Z,95899.53
2019-05-23T11:57:51.821Z,95894.05
2019-05-23T12:01:28.006Z,95888.33
2019-05-23T12:04:17.409Z,95882.22
2019-05-23T12:07:21.620Z,95889.88
2019-05-23T12:10:09.316Z,95879.02
2019-05-23T12:12:56.880Z,95870.80
2019-05-23T12:15:45.066Z,95868.45
2019-05-23T12:18:32.377Z,95858.78
2019-05-23T12:21:20.543Z,95859.60
2019-05-23T12:24:09.202Z,95862.53
2019-05-23T12:26:56.241Z,95858.18
2019-05-23T12:29:44.686Z,95854.22
2019-05-23T12:32:32.278Z,95851.73
2019-05-23T12:35:19.829Z,95854.67
2019-05-23T12:38:06.802Z,95848.97
2019-05-23T12:40:55.320Z,95849.57
2019-05-23T12:43:42.841Z,95842.86
2019-05-23T12:46:33.114Z,95837.14
2019-05-23T12:49:26.255Z,95838.14
2019-05-23T12:52:14.862Z,95834.20
2019-05-23T12:55:02.949Z,95836.77
2019-05-23T12:57:50.626Z,95832.24
2019-05-23T13:00:49.752Z,95838.33
2019-05-23T13:03:37.299Z,95828.31
2019-05-23T13:06:25.463Z,95822.80
2019-05-23T13:09:13.222Z,95811.56
2019-05-23T13:12:00.558Z,95820.00
2019-05-23T13:14:47.962Z,95820.62
2019-05-23T13:17:35.444Z,95822.00
2019-05-23T13:20:23.523Z,95821.99
2019-05-23T13:23:20.410Z,95815.13
2019-05-23T13:26:00.531Z,95814.55
2019-05-23T13:28:48.262Z,95819.26
2019-05-23T13:31:35.659Z,95815.73
2019-05-23T13:34:22.983Z,95808.41
2019-05-23T13:37:16.126Z,95808.58
2019-05-23T13:40:00.610Z,95802.25
2019-05-23T13:42:48.397Z,95806.61
2019-05-23T13:45:35.539Z,95802.49
2019-05-23T13:48:28.034Z,95805.83
2019-05-23T13:51:16.936Z,95805.80
2019-05-23T13:54:04.921Z,95800.06
2019-05-23T13:57:02.577Z,95802.11
2019-05-23T13:59:50.718Z,95799.56
2019-05-23T14:02:38.791Z,95794.80
2019-05-23T14:05:26.956Z,95795.62
2019-05-23T14:08:18.833Z,95801.69
2019-05-23T14:11:20.267Z,95800.28
2019-05-23T14:14:08.128Z,95788.86
2019-05-23T14:17:21.621Z,95789.13
2019-05-23T14:20:09.924Z,95787.27
2019-05-23T14:23:02.450Z,95789.23
2019-05-23T14:25:49.834Z,95784.48
2019-05-23T14:28:37.938Z,95785.71
2019-05-23T14:31:25.817Z,95781.44
2019-05-23T14:34:16.075Z,95782.64
2019-05-23T14:37:19.257Z,95779.88
2019-05-23T14:40:09.778Z,95781.88
2019-05-23T14:43:06.535Z,95768.48
2019-05-23T14:46:03.979Z,95768.87
2019-05-23T14:49:07.367Z,95762.16
2019-05-23T14:52:15.659Z,95763.69
2019-05-23T14:55:10.196Z,95757.33
2019-05-23T14:57:55.789Z,95751.06
2019-05-23T15:00:44.994Z,95755.77
2019-05-23T15:03:35.562Z,95750.47
2019-05-23T15:06:22.347Z,95749.02
2019-05-23T15:09:10.117Z,95749.22
2019-05-23T15:11:57.413Z,95752.62
2019-05-23T15:14:46.316Z,95746.71
2019-05-23T15:17:33.887Z,95740.78
2019-05-23T15:20:21.313Z,95748.77
2019-05-23T15:23:09.136Z,95741.64
2019-05-23T15:25:57.286Z,95742.03
2019-05-23T15:28:45.106Z,95739.30
2019-05-23T15:31:32.588Z,95731.05
2019-05-23T15:34:19.956Z,95728.64
2019-05-23T15:37:07.251Z,95734.13
2019-05-23T15:39:54.273Z,95728.78
2019-05-23T15:42:41.650Z,95731.31
2019-05-23T15:45:29.710Z,95730.95
2019-05-23T15:48:17.335Z,95735.98
2019-05-23T15:51:06.872Z,95734.11
2019-05-23T15:54:13.303Z,95723.13
2019-05-23T15:57:13.886Z,95721.55
2019-05-23T16:00:29.801Z,95718.16
2019-05-23T16:03:34.572Z,95719.93
2019-05-23T16:06:23.800Z,95715.56
2019-05-23T16:09:27.509Z,95715.95
2019-05-23T16:12:02.303Z,95714.58
2019-05-23T16:14:49.782Z,95713.28
2019-05-23T16:17:37.714Z,95704.11
2019-05-23T16:20:25.191Z,95717.66
2019-05-23T16:23:12.463Z,95708.05
2019-05-23T16:26:00.029Z,95707.86
2019-05-23T16:28:47.832Z,95705.09
2019-05-23T16:31:35.427Z,95703.28
2019-05-23T16:34:22.795Z,95697.20
2019-05-23T16:37:09.841Z,95704.29
2019-05-23T16:39:57.226Z,95710.61
2019-05-23T16:42:44.634Z,95692.84
2019-05-23T16:45:32.059Z,95697.38
2019-05-23T16:48:19.810Z,95691.09
2019-05-23T16:51:08.020Z,95692.70
2019-05-23T16:53:55.774Z,95685.42
2019-05-23T16:57:17.638Z,95689.16
2019-05-23T17:00:26.047Z,95693.30
2019-05-23T17:03:23.643Z,95689.75
2019-05-23T17:06:29.255Z,95685.60
2019-05-23T17:09:42.263Z,95694.48
2019-05-23T17:12:37.033Z,95688.17
2019-05-23T17:15:42.191Z,95687.23
2019-05-23T17:18:41.970Z,95685.48
2019-05-23T17:21:54.018Z,95689.81
2019-05-23T17:24:49.137Z,95688.46
2019-05-23T17:27:51.867Z,95681.01
2019-05-23T17:30:48.657Z,95692.02
2019-05-23T17:33:37.260Z,95688.31
2019-05-23T17:36:25.469Z,95683.98
2019-05-23T17:39:15.133Z,95682.61
2019-05-23T17:42:03.580Z,95683.59
2019-05-23T17:44:51.171Z,95679.27
2019-05-23T17:47:38.311Z,95681.02
2019-05-23T17:50:26.659Z,95675.31
2019-05-23T17:53:14.843Z,95677.47
2019-05-23T17:56:02.850Z,95685.13
2019-05-23T17:58:50.834Z,95687.48
2019-05-23T18:01:38.768Z,95680.41
2019-05-23T18:04:26.523Z,95683.16
2019-05-23T18:07:14.588Z,95691.80
2019-05-23T18:10:02.726Z,95686.86
2019-05-23T18:12:50.389Z,95686.86
2019-05-23T18:15:40.423Z,95690.38
2019-05-23T18:18:28.429Z,95682.50
2019-05-23T18:21:16.677Z,95684.67
2019-05-23T18:24:04.907Z,95690.89
2019-05-23T18:26:52.439Z,95691.90
2019-05-23T18:29:40.126Z,95694.56
2019-05-23T18:32:28.589Z,95693.16
2019-05-23T18:35:17.633Z,95701.76
2019-05-23T18:38:07.557Z,95700.18
2019-05-23T18:41:03.981Z,95692.53
2019-05-23T18:43:45.052Z,95697.59
2019-05-23T18:46:37.844Z,95699.70
2019-05-23T18:49:25.700Z,95698.12
2019-05-23T18:52:13.298Z,95702.38
2019-05-23T18:55:00.530Z,95702.30
2019-05-23T18:57:51.766Z,95705.20
2019-05-23T19:01:00.427Z,95710.43
2019-05-23T19:03:48.592Z,95708.42
2019-05-23T19:06:36.733Z,95706.42
2019-05-23T19:09:25.922Z,95710.85
2019-05-23T19:12:15.494Z,95705.11
2019-05-23T19:15:03.093Z,95709.52
2019-05-23T19:17:50.414Z,95711.88
2019-05-23T19:20:39.956Z,95711.72
2019-05-23T19:23:27.504Z,95707.42
2019-05-23T19:26:15.348Z,95711.92
2019-05-23T19:29:03.274Z,95708.35
2019-05-23T19:31:50.294Z,95719.89
2019-05-23T19:34:38.576Z,95715.10
2019-05-23T19:37:26.356Z,95718.85
2019-05-23T19:40:13.829Z,95720.22
2019-05-23T19:43:01.755Z,95715.43
2019-05-23T19:45:49.812Z,95712.63
2019-05-23T19:48:39.657Z,95716.87
2019-05-23T19:51:28.475Z,95716.45
2019-05-23T19:54:16.509Z,95720.91
2019-05-23T19:57:03.709Z,95724.19
2019-05-23T19:59:51.195Z,95720.29
2019-05-23T20:02:53.798Z,95720.38
2019-05-23T20:05:41.688Z,95716.77
2019-05-23T20:08:29.254Z,95719.87
2019-05-23T20:11:17.575Z,95717.48
2019-05-23T20:14:05.259Z,95721.17
2019-05-23T20:16:53.070Z,95718.13
2019-05-23T20:19:40.452Z,95717.67
2019-05-23T20:22:28.005Z,95722.09
2019-05-23T20:25:16.543Z,95725.72
2019-05-23T20:28:03.973Z,95727.36
2019-05-23T20:30:52.766Z,95724.31
2019-05-23T20:33:40.462Z,95719.30
2019-05-23T20:36:28.701Z,95718.45
2019-05-23T20:39:17.393Z,95724.19
2019-05-23T20:42:11.548Z,95721.97
2019-05-23T20:44:53.937Z,95728.89
2019-05-23T20:47:41.375Z,95717.56
2019-05-23T20:50:29.096Z,95717.60
2019-05-23T20:53:17.041Z,95714.18
2019-05-23T20:56:05.303Z,95716.28
2019-05-23T20:58:52.941Z,95715.89
2019-05-23T21:01:42.590Z,95715.70
2019-05-23T21:04:30.021Z,95718.18
2019-05-23T21:07:17.760Z,95718.96
2019-05-23T21:10:05.596Z,95726.73
2019-05-23T21:12:52.949Z,95723.70
2019-05-23T21:15:41.714Z,95723.41
2019-05-23T21:18:29.260Z,95722.55
2019-05-23T21:21:16.946Z,95724.21
2019-05-23T21:24:04.752Z,95716.19
2019-05-23T21:26:52.271Z,95717.61
2019-05-23T21:29:40.116Z,95720.87
2019-05-23T21:32:27.367Z,95724.47
2019-05-23T21:35:15.005Z,95712.02
2019-05-23T21:38:02.636Z,95716.09
2019-05-23T21:40:50.008Z,95721.55
2019-05-23T21:43:37.634Z,95717.45
2019-05-23T21:46:24.943Z,95715.44
2019-05-23T21:49:13.304Z,95714.53
2019-05-23T21:52:00.998Z,95718.21
2019-05-23T21:54:50.311Z,95715.03
2019-05-23T21:57:37.891Z,95712.77
2019-05-23T22:00:48.705Z,95711.11
2019-05-23T22:03:37.895Z,95715.85
2019-05-23T22:06:28.115Z,95716.02
2019-05-23T22:09:18.132Z,95714.70
2019-05-23T22:12:12.521Z,95717.65
2019-05-23T22:15:00.843Z,95722.77
2019-05-23T22:17:49.546Z,95723.42
2019-05-23T22:20:37.013Z,95715.27
2019-05-23T22:23:25.919Z,95718.95
2019-05-23T22:26:13.889Z,95712.45
2019-05-23T22:29:01.511Z,95707.97
2019-05-23T22:31:49.263Z,95708.92
2019-05-23T22:35:01.838Z,95713.75
2019-05-23T22:37:49.026Z,95709.66
2019-05-23T22:40:38.517Z,95711.53
2019-05-23T22:43:25.893Z,95707.31
2019-05-23T22:46:13.841Z,95715.19
2019-05-23T22:49:01.245Z,95715.05
2019-05-23T22:51:48.598Z,95712.19
2019-05-23T22:54:36.042Z,95718.06
2019-05-23T22:57:23.366Z,95724.75
2019-05-23T23:00:11.584Z,95720.95
2019-05-23T23:02:59.075Z,95717.58
2019-05-23T23:05:49.049Z,95715.75
2019-05-23T23:08:37.233Z,95715.95
2019-05-23T23:11:24.563Z,95714.92
2019-05-23T23:14:12.329Z,95717.16
2019-05-23T23:17:00.330Z,95712.80
2019-05-23T23:19:47.815Z,95719.83
2019-05-23T23:22:38.155Z,95718.25
2019-05-23T23:25:25.200Z,95715.75
2019-05-23T23:28:12.577Z,95716.64
2019-05-23T23:31:00.040Z,95714.19
2019-05-23T23:33:48.150Z,95717.13
2019-05-23T23:36:35.995Z,95714.62
2019-05-23T23:39:23.833Z,95711.38
2019-05-23T23:42:11.472Z,95711.91
2019-05-23T23:45:16.705Z,95712.53
2019-05-23T23:48:21.214Z,95715.34
2019-05-23T23:51:26.883Z,95718.86
2019-05-23T23:54:32.246Z,95706.82
2019-05-23T23:57:37.928Z,95706.66
